Time;durP1;ratioP1;P1;durP2;ratioP2;P2;SDS_P1;SDS_P2;PMS_P1;PMS_P2;Temp;Humidity;BMP_temperature;BMP_pressure;BME280_temperature;BME280_humidity;BME280_pressure;Samples;Min_cycle;Max_cycle;Signal;HPM_P1;HPM_P2
2021/12/25 00:02:18;;;;;;;24.73;22.92;;;;;;;;;;5075562;28;20215;-86
2021/12/25 00:04:45;;;;;;;25.08;23.20;;;;;;;;;;5075626;28;20195;-85
2021/12/25 00:07:13;;;;;;;24.42;22.73;;;;;;;;;;5075452;28;20191;-86
2021/12/25 00:09:41;;;;;;;23.05;21.48;;;;;;;;;;5075150;28;20232;-86
2021/12/25 00:12:09;;;;;;;23.17;21.48;;;;;;;;;;5075172;28;20220;-86
2021/12/25 00:14:36;;;;;;;24.25;22.10;;;;;;;;;;5075217;28;20191;-85
2021/12/25 00:17:05;;;;;;;22.58;21.08;;;;;;;;;;5074895;28;20197;-85
2021/12/25 00:19:33;;;;;;;22.55;21.15;;;;;;;;;;5057226;28;20249;-86
2021/12/25 00:22:01;;;;;;;21.50;20.27;;;;;;;;;;5074908;28;20290;-87
2021/12/25 00:24:28;;;;;;;22.25;20.85;;;;;;;;;;5056946;28;20199;-86
2021/12/25 00:27:01;;;;;;;22.52;21.13;;;;;;;;;;5074820;28;20226;-86
2021/12/25 00:29:49;;;;;;;21.95;20.63;;;;;;;;;;5058389;28;20190;-86
2021/12/25 00:35:02;;;;;;;21.70;20.25;;;;;;;;;;5073837;28;20305;-86
2021/12/25 00:37:29;;;;;;;23.17;21.67;;;;;;;;;;5074908;28;20208;-86
2021/12/25 00:39:57;;;;;;;23.77;21.98;;;;;;;;;;5074747;28;20199;-86
2021/12/25 00:42:24;;;;;;;22.70;21.00;;;;;;;;;;5074423;28;20192;-86
2021/12/25 00:44:51;;;;;;;21.77;20.20;;;;;;;;;;5074294;28;20192;-86
2021/12/25 00:47:20;;;;;;;21.58;20.02;;;;;;;;;;5074222;28;20195;-86
2021/12/25 00:49:48;;;;;;;22.70;21.20;;;;;;;;;;5074459;28;20204;-86
2021/12/25 00:52:15;;;;;;;21.95;20.55;;;;;;;;;;5074404;28;20203;-85
2021/12/25 00:54:42;;;;;;;22.52;20.75;;;;;;;;;;5074428;28;20193;-86
2021/12/25 00:57:10;;;;;;;21.90;20.38;;;;;;;;;;5074803;28;20191;-84
2021/12/25 00:59:37;;;;;;;20.55;19.45;;;;;;;;;;5074162;28;20198;-85
2021/12/25 01:02:05;;;;;;;23.02;21.45;;;;;;;;;;5074379;28;20215;-84
2021/12/25 01:04:34;;;;;;;22.38;20.88;;;;;;;;;;5073888;28;20231;-86
2021/12/25 01:07:01;;;;;;;22.35;20.77;;;;;;;;;;5072053;28;20570;-86
2021/12/25 01:09:28;;;;;;;24.65;22.45;;;;;;;;;;5054204;28;20207;-86
2021/12/25 01:11:57;;;;;;;22.02;20.73;;;;;;;;;;5053836;28;20228;-86
2021/12/25 01:14:33;;;;;;;22.10;20.52;;;;;;;;;;5054181;28;20190;-86
2021/12/25 01:20:08;;;;;;;22.20;20.65;;;;;;;;;;5053183;28;20202;-87
2021/12/25 01:28:58;;;;;;;21.97;20.60;;;;;;;;;;5101941;27;1460550;-85
2021/12/25 01:31:28;;;;;;;23.67;21.85;;;;;;;;;;5131183;28;20202;-85
2021/12/25 01:36:55;;;;;;;23.48;21.48;;;;;;;;;;5124005;28;20380;-85
2021/12/25 01:39:30;;;;;;;21.40;20.02;;;;;;;;;;5131165;28;20694;-85
2021/12/25 01:42:06;;;;;;;22.00;20.70;;;;;;;;;;5131144;28;20197;-84
2021/12/25 01:50:07;;;;;;;22.70;21.20;;;;;;;;;;5131171;28;20225;-85
2021/12/25 01:52:34;;;;;;;22.52;21.13;;;;;;;;;;5131197;28;20186;-85
2021/12/25 01:55:03;;;;;;;22.50;20.65;;;;;;;;;;5131174;28;20192;-85
2021/12/25 01:57:30;;;;;;;23.60;21.67;;;;;;;;;;5096085;28;20647;-85
2021/12/25 02:00:00;;;;;;;21.00;19.60;;;;;;;;;;5112865;28;20717;-85
2021/12/25 02:02:28;;;;;;;24.27;22.42;;;;;;;;;;5130734;28;20192;-85
2021/12/25 02:04:56;;;;;;;22.55;21.05;;;;;;;;;;5130648;28;20643;-84
2021/12/25 02:07:24;;;;;;;22.63;21.23;;;;;;;;;;5130881;28;20564;-85
2021/12/25 02:09:51;;;;;;;22.73;21.27;;;;;;;;;;5095837;28;20197;-85
2021/12/25 02:12:19;;;;;;;24.75;22.80;;;;;;;;;;5130738;28;20222;-85
2021/12/25 02:14:48;;;;;;;23.88;22.20;;;;;;;;;;5130370;28;20187;-85
2021/12/25 02:17:23;;;;;;;25.85;23.88;;;;;;;;;;5130543;28;20225;-85
2021/12/25 02:20:08;;;;;;;22.08;20.17;;;;;;;;;;5130428;28;20560;-85
2021/12/25 02:22:36;;;;;;;23.95;22.17;;;;;;;;;;5130631;28;20249;-85
2021/12/25 02:25:03;;;;;;;23.02;21.52;;;;;;;;;;5130359;28;20277;-85
2021/12/25 02:27:31;;;;;;;23.00;21.52;;;;;;;;;;5130178;28;20245;-85
2021/12/25 02:29:58;;;;;;;24.27;22.27;;;;;;;;;;5130281;28;20243;-85
2021/12/25 02:32:26;;;;;;;48.95;21.95;;;;;;;;;;5130043;28;20204;-86
2021/12/25 02:34:54;;;;;;;23.10;21.45;;;;;;;;;;5130119;28;20218;-85
2021/12/25 02:37:22;;;;;;;23.88;22.38;;;;;;;;;;5129374;28;20186;-85
2021/12/25 02:39:50;;;;;;;23.05;21.55;;;;;;;;;;5116470;28;20247;-85
2021/12/25 02:42:17;;;;;;;23.05;21.65;;;;;;;;;;5116242;28;20203;-85
2021/12/25 02:44:45;;;;;;;24.48;22.33;;;;;;;;;;5116372;28;20204;-84
2021/12/25 02:47:19;;;;;;;22.52;21.05;;;;;;;;;;5116081;28;20654;-85
2021/12/25 02:49:48;;;;;;;22.60;21.10;;;;;;;;;;5099399;28;20193;-85
2021/12/25 02:52:17;;;;;;;23.48;21.73;;;;;;;;;;5116384;28;20550;-84
2021/12/25 02:54:45;;;;;;;24.08;22.30;;;;;;;;;;5116438;28;20210;-85
2021/12/25 02:57:12;;;;;;;23.05;21.50;;;;;;;;;;5115845;28;20214;-85
2021/12/25 02:59:40;;;;;;;22.73;21.40;;;;;;;;;;5115919;28;20224;-85
2021/12/25 03:02:09;;;;;;;22.50;20.75;;;;;;;;;;5116107;28;20190;-84
2021/12/25 03:04:37;;;;;;;21.02;19.83;;;;;;;;;;5115935;28;20186;-84
2021/12/25 03:07:05;;;;;;;23.55;21.92;;;;;;;;;;5115978;28;20221;-84
2021/12/25 03:09:34;;;;;;;21.90;20.70;;;;;;;;;;5115758;28;20209;-84
2021/12/25 03:12:02;;;;;;;25.08;22.90;;;;;;;;;;5116062;28;20241;-85
2021/12/25 03:14:38;;;;;;;22.83;21.27;;;;;;;;;;5115863;28;20290;-85
2021/12/25 03:17:05;;;;;;;22.38;20.95;;;;;;;;;;5115807;28;20213;-85
2021/12/25 03:19:34;;;;;;;23.15;21.75;;;;;;;;;;5115804;28;20190;-84
2021/12/25 03:22:02;;;;;;;23.45;21.63;;;;;;;;;;5115970;28;20195;-85
2021/12/25 03:24:29;;;;;;;45.92;42.17;;;;;;;;;;5115673;28;20194;-85
2021/12/25 03:26:59;;;;;;;35.03;32.70;;;;;;;;;;5114889;28;20238;-84
2021/12/25 03:29:27;;;;;;;23.10;21.60;;;;;;;;;;5097918;28;20186;-84
2021/12/25 03:31:54;;;;;;;27.50;25.55;;;;;;;;;;5115282;28;20199;-84
2021/12/25 03:34:22;;;;;;;24.95;22.63;;;;;;;;;;5115195;28;20198;-84
2021/12/25 03:36:49;;;;;;;67.13;57.53;;;;;;;;;;5115255;28;20273;-85
2021/12/25 03:39:16;;;;;;;62.92;53.50;;;;;;;;;;5115389;28;20186;-84
2021/12/25 03:41:44;;;;;;;112.32;72.28;;;;;;;;;;5115377;28;20236;-87
2021/12/25 03:44:13;;;;;;;24.77;22.85;;;;;;;;;;5114469;28;20723;-85
2021/12/25 03:46:40;;;;;;;102.35;71.63;;;;;;;;;;5115114;28;20201;-85
2021/12/25 03:49:14;;;;;;;50.03;39.05;;;;;;;;;;5096769;28;20284;-85
2021/12/25 04:00:03;;;;;;;176.45;69.20;;;;;;;;;;5115081;28;20230;-85
2021/12/25 04:02:37;;;;;;;137.30;66.65;;;;;;;;;;5114856;28;20244;-85
2021/12/25 04:05:06;;;;;;;249.73;86.90;;;;;;;;;;5114929;28;20213;-85
2021/12/25 04:08:00;;;;;;;302.00;106.28;;;;;;;;;;5114512;28;20221;-85
2021/12/25 04:10:28;;;;;;;25.10;23.08;;;;;;;;;;5110470;28;20214;-85
2021/12/25 04:12:56;;;;;;;22.55;21.30;;;;;;;;;;5114482;28;20223;-83
2021/12/25 04:15:25;;;;;;;92.93;62.72;;;;;;;;;;5114498;28;20202;-85
2021/12/25 04:17:52;;;;;;;305.58;98.80;;;;;;;;;;5114272;28;20190;-85
2021/12/25 04:20:20;;;;;;;112.88;70.07;;;;;;;;;;5114504;28;20194;-85
2021/12/25 04:22:53;;;;;;;98.07;58.03;;;;;;;;;;5096225;28;20243;-85
2021/12/25 04:25:26;;;;;;;217.10;79.65;;;;;;;;;;5114120;28;20609;-85
2021/12/25 04:27:53;;;;;;;338.45;98.78;;;;;;;;;;5095905;28;20234;-85
2021/12/25 04:30:30;;;;;;;348.38;97.30;;;;;;;;;;5114724;28;20259;-85
2021/12/25 05:03:45;;;;;;;221.82;76.40;;;;;;;;;;5031197;28;20484;-85
2021/12/25 05:06:14;;;;;;;189.85;71.43;;;;;;;;;;5031567;28;20211;-85
2021/12/25 05:08:42;;;;;;;246.10;78.35;;;;;;;;;;5031280;28;20212;-85
2021/12/25 05:11:10;;;;;;;202.27;76.30;;;;;;;;;;5031203;28;20224;-85
2021/12/25 05:13:37;;;;;;;303.75;85.95;;;;;;;;;;5031221;28;20258;-84
2021/12/25 05:16:05;;;;;;;287.85;88.97;;;;;;;;;;5031329;28;20213;-85
2021/12/25 05:18:32;;;;;;;329.10;96.00;;;;;;;;;;5031239;28;20294;-85
2021/12/25 05:21:00;;;;;;;299.88;85.07;;;;;;;;;;5031150;28;20200;-85
2021/12/25 05:23:28;;;;;;;282.40;79.75;;;;;;;;;;5031266;28;20189;-85
2021/12/25 05:25:56;;;;;;;326.83;84.40;;;;;;;;;;5031208;28;20240;-85
2021/12/25 05:28:27;;;;;;;329.80;82.68;;;;;;;;;;5030940;28;20721;-85
2021/12/25 05:30:55;;;;;;;335.60;83.40;;;;;;;;;;5031053;28;20647;-84
2021/12/25 05:33:23;;;;;;;288.33;80.45;;;;;;;;;;5031205;28;20213;-85
2021/12/25 05:35:50;;;;;;;214.68;73.60;;;;;;;;;;5031078;28;20196;-85
2021/12/25 05:38:18;;;;;;;264.50;77.28;;;;;;;;;;5035262;28;20196;-85
2021/12/25 05:40:48;;;;;;;276.40;78.88;;;;;;;;;;5092986;28;20211;-85
2021/12/25 05:43:15;;;;;;;243.70;75.63;;;;;;;;;;5092784;28;20187;-85
2021/12/25 05:45:43;;;;;;;236.80;75.80;;;;;;;;;;5093063;28;20202;-85
2021/12/25 05:48:10;;;;;;;213.15;72.55;;;;;;;;;;5093172;28;20215;-85
2021/12/25 05:50:38;;;;;;;290.60;78.70;;;;;;;;;;5093260;28;20202;-85
2021/12/25 05:53:06;;;;;;;254.98;76.85;;;;;;;;;;5093125;28;20215;-85
2021/12/25 05:55:34;;;;;;;266.10;76.15;;;;;;;;;;5091813;28;20256;-85
2021/12/25 05:58:03;;;;;;;312.73;82.13;;;;;;;;;;5093000;28;20191;-84
2021/12/25 06:00:31;;;;;;;305.10;79.90;;;;;;;;;;5091788;28;20274;-85
2021/12/25 06:02:59;;;;;;;276.38;76.57;;;;;;;;;;5091642;28;20727;-85
2021/12/25 06:05:27;;;;;;;299.83;79.97;;;;;;;;;;5092770;28;20548;-85
2021/12/25 06:07:55;;;;;;;291.85;79.93;;;;;;;;;;5092881;28;20577;-85
2021/12/25 06:10:22;;;;;;;295.00;79.18;;;;;;;;;;5093174;28;20195;-85
2021/12/25 06:12:53;;;;;;;294.38;78.88;;;;;;;;;;5093277;28;20218;-85
2021/12/25 06:15:23;;;;;;;260.00;76.75;;;;;;;;;;5096746;28;20229;-85
2021/12/25 06:17:50;;;;;;;281.52;77.70;;;;;;;;;;5096568;28;20657;-85
2021/12/25 06:20:18;;;;;;;303.02;77.03;;;;;;;;;;5096542;28;20655;-85
2021/12/25 06:22:45;;;;;;;290.77;78.95;;;;;;;;;;5096590;28;20202;-84
2021/12/25 06:25:13;;;;;;;283.52;79.35;;;;;;;;;;5096465;28;20194;-85
2021/12/25 06:27:40;;;;;;;283.33;78.28;;;;;;;;;;5096135;28;20638;-86
2021/12/25 06:30:09;;;;;;;320.25;79.15;;;;;;;;;;5095257;28;20236;-85
2021/12/25 06:32:38;;;;;;;292.45;79.88;;;;;;;;;;5096087;28;20191;-84
2021/12/25 06:35:06;;;;;;;361.42;108.25;;;;;;;;;;5096411;28;20545;-85
2021/12/25 06:37:33;;;;;;;154.50;62.63;;;;;;;;;;5097480;28;20191;-85
2021/12/25 06:40:01;;;;;;;382.65;112.45;;;;;;;;;;5097061;28;20195;-85
2021/12/25 06:42:29;;;;;;;172.88;71.50;;;;;;;;;;5096661;28;20194;-85
2021/12/25 06:44:56;;;;;;;262.10;78.10;;;;;;;;;;5096802;28;20202;-85
2021/12/25 06:47:24;;;;;;;282.58;76.15;;;;;;;;;;5095593;28;20198;-85
2021/12/25 06:49:53;;;;;;;399.17;134.48;;;;;;;;;;5098279;28;20993;-85
2021/12/25 06:52:20;;;;;;;220.82;71.57;;;;;;;;;;5099643;28;20194;-85
2021/12/25 06:54:48;;;;;;;310.17;79.50;;;;;;;;;;5096248;28;20187;-85
2021/12/25 06:57:15;;;;;;;295.67;78.80;;;;;;;;;;5078476;28;20194;-83
2021/12/25 06:59:43;;;;;;;326.67;79.50;;;;;;;;;;5096499;28;20562;-85
2021/12/25 07:02:12;;;;;;;244.88;77.75;;;;;;;;;;5096101;28;20199;-85
2021/12/25 07:04:39;;;;;;;322.45;80.95;;;;;;;;;;5097010;28;20241;-85
2021/12/25 07:07:08;;;;;;;310.67;77.03;;;;;;;;;;5096287;28;20194;-84
2021/12/25 07:09:35;;;;;;;298.98;77.22;;;;;;;;;;5096604;28;20215;-84
2021/12/25 07:12:03;;;;;;;299.40;83.50;;;;;;;;;;5095843;28;20712;-85
2021/12/25 07:14:30;;;;;;;313.08;79.30;;;;;;;;;;5096333;28;20195;-85
2021/12/25 07:16:59;;;;;;;331.90;91.22;;;;;;;;;;5096804;28;20233;-85
2021/12/25 07:19:26;;;;;;;302.63;85.30;;;;;;;;;;5097961;28;20214;-84
2021/12/25 07:21:53;;;;;;;297.25;77.72;;;;;;;;;;5096239;28;20256;-85
2021/12/25 07:24:22;;;;;;;292.75;78.95;;;;;;;;;;5096552;28;20206;-85
2021/12/25 07:26:50;;;;;;;38.97;35.30;;;;;;;;;;5096280;28;20240;-84
2021/12/25 07:29:17;;;;;;;47.03;42.40;;;;;;;;;;5095873;28;20576;-85
2021/12/25 07:31:44;;;;;;;47.50;43.38;;;;;;;;;;5096409;28;20187;-84
2021/12/25 07:34:12;;;;;;;166.85;67.30;;;;;;;;;;5095817;28;20210;-83
2021/12/25 07:36:39;;;;;;;264.95;77.57;;;;;;;;;;5096225;28;20191;-83
2021/12/25 07:39:06;;;;;;;300.23;78.00;;;;;;;;;;5094949;28;20209;-83
2021/12/25 07:41:35;;;;;;;317.60;79.90;;;;;;;;;;5096214;28;20193;-83
2021/12/25 07:44:03;;;;;;;55.95;49.95;;;;;;;;;;5094717;28;20194;-83
2021/12/25 07:46:32;;;;;;;298.92;77.80;;;;;;;;;;5096832;28;20192;-82
2021/12/25 07:49:00;;;;;;;458.20;147.63;;;;;;;;;;5094986;28;20215;-83
2021/12/25 07:51:27;;;;;;;89.70;58.58;;;;;;;;;;5096755;28;20286;-83
2021/12/25 07:53:55;;;;;;;311.85;83.93;;;;;;;;;;5094820;28;20190;-83
2021/12/25 07:56:25;;;;;;;345.80;82.43;;;;;;;;;;5093873;28;20595;-84
2021/12/25 07:58:54;;;;;;;43.58;39.05;;;;;;;;;;5094856;28;20193;-83
2021/12/25 08:01:21;;;;;;;340.73;80.80;;;;;;;;;;5094813;28;20187;-83
2021/12/25 08:03:48;;;;;;;102.70;64.35;;;;;;;;;;5095343;28;20217;-83
2021/12/25 08:06:16;;;;;;;84.95;56.40;;;;;;;;;;5095013;28;20187;-82
2021/12/25 08:08:43;;;;;;;131.02;59.38;;;;;;;;;;5095822;28;20222;-86
2021/12/25 08:11:11;;;;;;;183.18;72.43;;;;;;;;;;5076568;28;20290;-83
2021/12/25 08:13:38;;;;;;;196.82;71.13;;;;;;;;;;5094956;28;20203;-83
2021/12/25 08:16:07;;;;;;;121.85;69.15;;;;;;;;;;5096578;28;20191;-81
2021/12/25 08:18:34;;;;;;;275.27;81.60;;;;;;;;;;5094442;28;20290;-83
2021/12/25 08:21:04;;;;;;;318.45;89.47;;;;;;;;;;5094472;28;20191;-82
2021/12/25 08:23:32;;;;;;;342.92;82.10;;;;;;;;;;5094545;28;20198;-82
2021/12/25 08:25:59;;;;;;;340.60;84.97;;;;;;;;;;5094938;28;20195;-82
2021/12/25 08:28:27;;;;;;;348.65;80.80;;;;;;;;;;5094633;28;20217;-82
2021/12/25 08:30:55;;;;;;;336.80;81.72;;;;;;;;;;5094094;28;20191;-82
2021/12/25 08:33:23;;;;;;;346.98;82.07;;;;;;;;;;5094810;28;20233;-83
2021/12/25 08:35:51;;;;;;;348.40;90.53;;;;;;;;;;5094114;28;20187;-83
2021/12/25 08:38:18;;;;;;;339.02;83.00;;;;;;;;;;5094076;28;20603;-83
2021/12/25 08:40:46;;;;;;;348.92;82.20;;;;;;;;;;5094798;28;20195;-83
2021/12/25 08:43:16;;;;;;;343.48;84.05;;;;;;;;;;5076458;28;20233;-85
2021/12/25 08:45:45;;;;;;;351.27;81.07;;;;;;;;;;5077584;28;20637;-83
2021/12/25 08:48:14;;;;;;;224.40;72.30;;;;;;;;;;5095279;28;20271;-83
2021/12/25 08:50:45;;;;;;;251.63;85.22;;;;;;;;;;5094795;28;20587;-83
2021/12/25 08:53:12;;;;;;;97.80;57.20;;;;;;;;;;5094829;28;20199;-82
2021/12/25 08:55:40;;;;;;;213.38;69.03;;;;;;;;;;5093556;28;20198;-83
2021/12/25 08:58:07;;;;;;;193.02;61.30;;;;;;;;;;5093553;28;20191;-83
2021/12/25 09:00:35;;;;;;;49.45;44.40;;;;;;;;;;5075195;28;20199;-83
2021/12/25 09:03:03;;;;;;;327.20;80.70;;;;;;;;;;5093404;28;20543;-83
2021/12/25 09:05:30;;;;;;;344.20;81.25;;;;;;;;;;5092769;28;20575;-83
2021/12/25 09:07:59;;;;;;;82.50;62.30;;;;;;;;;;5092766;28;20645;-83
2021/12/25 09:10:28;;;;;;;314.17;79.65;;;;;;;;;;5093403;28;20201;-83
2021/12/25 09:12:55;;;;;;;85.35;48.67;;;;;;;;;;5095561;28;20187;-82
2021/12/25 09:15:23;;;;;;;321.55;80.97;;;;;;;;;;5093625;28;20586;-84
2021/12/25 09:17:50;;;;;;;324.38;79.03;;;;;;;;;;5094535;28;20190;-84
2021/12/25 09:20:18;;;;;;;342.60;84.57;;;;;;;;;;5094275;28;20205;-84
2021/12/25 09:22:46;;;;;;;351.15;82.55;;;;;;;;;;5076172;28;20186;-83
2021/12/25 09:25:15;;;;;;;350.35;81.72;;;;;;;;;;5075556;28;20206;-84
2021/12/25 09:27:44;;;;;;;364.75;88.78;;;;;;;;;;5093428;28;20226;-84
2021/12/25 09:30:12;;;;;;;351.45;82.47;;;;;;;;;;5092611;28;20680;-82
2021/12/25 09:32:40;;;;;;;324.13;79.07;;;;;;;;;;5093418;28;20576;-85
2021/12/25 09:35:07;;;;;;;358.15;82.10;;;;;;;;;;5093187;28;20209;-84
2021/12/25 09:37:35;;;;;;;289.38;79.70;;;;;;;;;;5093091;28;20209;-84
2021/12/25 09:40:02;;;;;;;335.90;87.22;;;;;;;;;;5092754;28;20212;-84
2021/12/25 09:42:31;;;;;;;327.00;77.43;;;;;;;;;;5093353;28;20198;-83
2021/12/25 09:44:59;;;;;;;347.02;81.30;;;;;;;;;;5092595;28;20195;-84
2021/12/25 09:47:26;;;;;;;338.48;81.07;;;;;;;;;;5092794;28;20236;-83
2021/12/25 09:49:54;;;;;;;343.35;83.35;;;;;;;;;;5100005;28;20214;-84
2021/12/25 09:52:21;;;;;;;208.65;77.90;;;;;;;;;;5082912;28;20199;-83
2021/12/25 09:54:49;;;;;;;160.95;67.72;;;;;;;;;;5102239;28;20671;-83
2021/12/25 09:57:18;;;;;;;50.90;32.55;;;;;;;;;;5101567;28;20197;-84
2021/12/25 09:59:48;;;;;;;74.07;35.90;;;;;;;;;;5099499;28;20191;-83
2021/12/25 10:02:17;;;;;;;196.57;112.00;;;;;;;;;;5100471;28;20207;-83
2021/12/25 10:04:46;;;;;;;356.75;99.20;;;;;;;;;;5100541;28;20183;-83
2021/12/25 10:07:22;;;;;;;235.52;73.30;;;;;;;;;;5083252;28;20198;-83
2021/12/25 10:09:56;;;;;;;310.13;82.78;;;;;;;;;;5099409;28;20215;-82
2021/12/25 10:12:29;;;;;;;297.92;84.65;;;;;;;;;;5099730;28;20218;-82
2021/12/25 10:14:58;;;;;;;284.33;84.97;;;;;;;;;;5099592;28;20199;-82
2021/12/25 10:17:27;;;;;;;255.20;93.88;;;;;;;;;;5099631;28;20194;-82
2021/12/25 10:20:01;;;;;;;212.45;71.47;;;;;;;;;;5100198;28;20195;-81
2021/12/25 10:22:29;;;;;;;336.13;109.80;;;;;;;;;;5099643;28;20675;-82
2021/12/25 10:25:06;;;;;;;324.77;92.55;;;;;;;;;;5101102;28;20620;-80
2021/12/25 10:27:33;;;;;;;96.45;55.25;;;;;;;;;;5099728;28;20234;-82
2021/12/25 10:30:06;;;;;;;233.10;71.93;;;;;;;;;;5099392;28;20218;-82
2021/12/25 10:32:38;;;;;;;226.15;75.53;;;;;;;;;;5098247;28;20210;-81
2021/12/25 10:35:13;;;;;;;303.98;79.35;;;;;;;;;;5099470;28;20191;-82
2021/12/25 10:37:41;;;;;;;225.55;61.20;;;;;;;;;;5098562;28;20233;-82
2021/12/25 10:40:18;;;;;;;22.75;21.52;;;;;;;;;;5098961;28;20203;-82
2021/12/25 10:42:46;;;;;;;178.63;67.45;;;;;;;;;;5097677;28;20193;-81
2021/12/25 10:45:15;;;;;;;230.20;74.88;;;;;;;;;;5097838;28;20202;-82
2021/12/25 10:47:43;;;;;;;241.90;76.53;;;;;;;;;;5096978;28;20210;-82
2021/12/25 10:50:11;;;;;;;168.73;70.97;;;;;;;;;;5099388;28;20229;-81
2021/12/25 10:52:42;;;;;;;194.35;70.93;;;;;;;;;;5096290;28;20191;-83
2021/12/25 10:55:16;;;;;;;182.70;70.65;;;;;;;;;;5095261;28;20221;-82
2021/12/25 10:57:45;;;;;;;278.88;77.03;;;;;;;;;;5095910;28;20202;-82
2021/12/25 11:00:13;;;;;;;33.38;28.00;;;;;;;;;;5094630;28;20202;-82
2021/12/25 11:02:43;;;;;;;178.35;76.22;;;;;;;;;;5078061;28;20211;-83
2021/12/25 11:05:21;;;;;;;31.58;28.92;;;;;;;;;;5096069;28;20194;-82
2021/12/25 11:07:49;;;;;;;23.40;21.98;;;;;;;;;;5095604;28;20226;-82
2021/12/25 11:10:18;;;;;;;114.22;61.75;;;;;;;;;;5094846;28;20355;-82
2021/12/25 11:12:46;;;;;;;72.35;55.35;;;;;;;;;;5096417;28;20641;-82
2021/12/25 11:15:15;;;;;;;128.43;65.65;;;;;;;;;;5101871;28;20254;-82
2021/12/25 11:17:49;;;;;;;104.25;64.10;;;;;;;;;;5104682;28;20187;-82
2021/12/25 11:20:23;;;;;;;171.05;62.55;;;;;;;;;;5100277;28;20191;-81
2021/12/25 11:22:51;;;;;;;137.45;62.55;;;;;;;;;;5107260;28;20202;-82
2021/12/25 11:25:20;;;;;;;101.70;51.17;;;;;;;;;;5102103;28;20286;-81
2021/12/25 11:27:48;;;;;;;90.35;51.42;;;;;;;;;;5099792;28;20256;-83
2021/12/25 11:30:16;;;;;;;70.85;55.28;;;;;;;;;;5097701;28;20238;-80
2021/12/25 11:32:44;;;;;;;89.82;57.45;;;;;;;;;;5098532;28;20194;-82
2021/12/25 11:35:13;;;;;;;86.20;57.97;;;;;;;;;;5097133;28;20205;-83
2021/12/25 11:37:40;;;;;;;118.97;60.90;;;;;;;;;;5099098;28;20224;-81
2021/12/25 11:40:09;;;;;;;39.78;32.33;;;;;;;;;;5097443;28;20209;-81
2021/12/25 11:42:41;;;;;;;104.80;62.22;;;;;;;;;;5098758;28;20193;-82
2021/12/25 11:45:16;;;;;;;86.80;58.00;;;;;;;;;;5103341;28;20229;-82
2021/12/25 11:47:46;;;;;;;76.40;53.00;;;;;;;;;;5099233;28;20193;-83
2021/12/25 11:50:15;;;;;;;97.07;56.20;;;;;;;;;;5101320;28;20234;-83
2021/12/25 11:52:53;;;;;;;23.60;21.95;;;;;;;;;;5100040;28;20194;-81
2021/12/25 11:55:47;;;;;;;83.82;55.75;;;;;;;;;;5101368;28;20217;-81
2021/12/25 11:58:39;;;;;;;69.50;53.30;;;;;;;;;;5099491;28;20194;-81
2021/12/25 12:01:21;;;;;;;74.78;59.17;;;;;;;;;;5100255;28;20215;-81
2021/12/25 12:03:54;;;;;;;114.85;53.33;;;;;;;;;;5099643;28;20293;-82
2021/12/25 12:06:22;;;;;;;39.22;33.53;;;;;;;;;;5103132;28;20203;-83
2021/12/25 12:09:07;;;;;;;38.40;35.78;;;;;;;;;;5110460;28;20187;-82
2021/12/25 12:11:34;;;;;;;60.50;50.28;;;;;;;;;;5117436;28;20652;-82
2021/12/25 12:14:15;;;;;;;58.67;48.88;;;;;;;;;;5118870;28;20186;-82
2021/12/25 12:16:43;;;;;;;76.93;58.00;;;;;;;;;;5119918;28;20193;-82
2021/12/25 12:19:25;;;;;;;64.13;57.78;;;;;;;;;;5122287;28;20187;-82
2021/12/25 12:21:54;;;;;;;55.95;50.67;;;;;;;;;;5116365;28;20260;-83
2021/12/25 12:24:39;;;;;;;49.85;45.70;;;;;;;;;;5116863;28;20186;-82
2021/12/25 12:27:06;;;;;;;50.38;45.83;;;;;;;;;;5114640;28;20233;-82
2021/12/25 12:29:47;;;;;;;50.83;46.22;;;;;;;;;;5114214;28;20279;-82
2021/12/25 12:32:30;;;;;;;41.85;37.80;;;;;;;;;;5114349;28;20194;-81
2021/12/25 12:34:57;;;;;;;49.92;44.75;;;;;;;;;;5112742;28;20225;-82
2021/12/25 12:37:30;;;;;;;23.83;22.42;;;;;;;;;;5115972;28;20190;-82
2021/12/25 12:40:16;;;;;;;66.60;48.63;;;;;;;;;;5115360;28;20198;-81
2021/12/25 12:42:55;;;;;;;23.67;22.17;;;;;;;;;;5115011;28;20664;-81
2021/12/25 12:45:24;;;;;;;32.90;29.98;;;;;;;;;;5113264;28;20281;-82
2021/12/25 12:48:09;;;;;;;33.45;31.40;;;;;;;;;;5114012;28;20216;-81
2021/12/25 12:50:37;;;;;;;48.70;44.17;;;;;;;;;;5113678;28;20206;-82
2021/12/25 12:53:07;;;;;;;50.38;43.95;;;;;;;;;;5113312;28;20190;-82
2021/12/25 12:55:37;;;;;;;38.35;35.63;;;;;;;;;;5113076;28;20197;-83
2021/12/25 12:58:08;;;;;;;25.23;23.45;;;;;;;;;;5113392;28;20231;-82
2021/12/25 13:00:36;;;;;;;24.10;22.63;;;;;;;;;;5113069;28;20647;-82
2021/12/25 13:03:03;;;;;;;22.30;21.00;;;;;;;;;;5113227;28;20186;-82
2021/12/25 13:05:33;;;;;;;23.00;21.80;;;;;;;;;;5112812;28;20190;-82
2021/12/25 13:08:02;;;;;;;21.70;20.60;;;;;;;;;;5112604;28;20222;-83
2021/12/25 13:10:36;;;;;;;25.15;23.10;;;;;;;;;;5112229;28;20229;-82
2021/12/25 13:13:09;;;;;;;23.05;21.75;;;;;;;;;;5112954;28;20201;-82
2021/12/25 13:15:36;;;;;;;22.15;20.75;;;;;;;;;;5112804;28;20198;-82
2021/12/25 13:18:04;;;;;;;23.00;21.60;;;;;;;;;;5113069;28;20193;-82
2021/12/25 13:20:49;;;;;;;21.85;20.63;;;;;;;;;;5112876;28;20197;-83
2021/12/25 13:23:18;;;;;;;22.52;21.23;;;;;;;;;;5112640;28;20190;-82
2021/12/25 13:25:50;;;;;;;21.08;19.98;;;;;;;;;;5112276;28;20717;-82
2021/12/25 13:28:17;;;;;;;21.50;20.30;;;;;;;;;;5112571;28;20240;-82
2021/12/25 13:30:47;;;;;;;22.52;21.25;;;;;;;;;;5112772;28;20218;-82
2021/12/25 13:33:16;;;;;;;23.20;21.73;;;;;;;;;;5112762;28;20186;-82
2021/12/25 13:35:44;;;;;;;21.40;20.30;;;;;;;;;;5101781;28;20271;-81
2021/12/25 13:38:11;;;;;;;21.48;20.27;;;;;;;;;;5100684;28;20183;-82
2021/12/25 13:40:39;;;;;;;21.50;20.40;;;;;;;;;;5101605;28;20194;-82
2021/12/25 13:43:10;;;;;;;22.27;21.00;;;;;;;;;;5102595;28;20529;-82
2021/12/25 13:45:38;;;;;;;24.15;22.80;;;;;;;;;;5100726;28;20195;-82
2021/12/25 13:48:06;;;;;;;29.45;27.45;;;;;;;;;;5100677;28;20183;-81
2021/12/25 13:50:34;;;;;;;24.60;23.10;;;;;;;;;;5102092;28;20218;-82
2021/12/25 13:53:06;;;;;;;40.38;36.33;;;;;;;;;;5091861;28;20186;-82
2021/12/25 13:55:34;;;;;;;25.30;23.77;;;;;;;;;;5091734;28;20194;-82
2021/12/25 13:58:03;;;;;;;22.30;21.10;;;;;;;;;;5091820;28;20202;-82
2021/12/25 14:00:33;;;;;;;21.95;20.80;;;;;;;;;;5091880;28;20206;-81
2021/12/25 14:03:02;;;;;;;21.95;20.75;;;;;;;;;;5092371;28;20224;-82
2021/12/25 14:05:30;;;;;;;24.95;23.40;;;;;;;;;;5091575;28;20629;-81
2021/12/25 14:07:58;;;;;;;23.58;22.27;;;;;;;;;;5096424;28;20266;-81
2021/12/25 14:10:26;;;;;;;23.50;22.10;;;;;;;;;;5112244;28;20217;-80
2021/12/25 14:12:54;;;;;;;24.00;22.60;;;;;;;;;;5112437;28;20685;-81
2021/12/25 14:15:23;;;;;;;22.83;21.52;;;;;;;;;;5112990;28;20198;-81
2021/12/25 14:17:52;;;;;;;25.27;23.52;;;;;;;;;;5112659;28;20251;-82
2021/12/25 14:20:20;;;;;;;23.05;21.75;;;;;;;;;;5123203;28;20193;-82
2021/12/25 14:22:48;;;;;;;22.27;20.95;;;;;;;;;;5112522;28;20202;-82
2021/12/25 14:25:20;;;;;;;22.77;21.42;;;;;;;;;;5112210;28;20679;-81
2021/12/25 14:28:00;;;;;;;22.77;21.50;;;;;;;;;;5096205;28;20298;-82
2021/12/25 14:30:28;;;;;;;22.10;20.80;;;;;;;;;;5099646;28;20636;-82
2021/12/25 14:32:57;;;;;;;24.20;22.65;;;;;;;;;;5097660;28;20571;-81
2021/12/25 14:35:24;;;;;;;39.50;35.25;;;;;;;;;;5100324;28;20205;-81
2021/12/25 14:37:56;;;;;;;27.10;24.92;;;;;;;;;;5100236;28;20217;-81
2021/12/25 14:40:24;;;;;;;22.48;21.08;;;;;;;;;;5100115;28;20201;-81
2021/12/25 14:42:53;;;;;;;30.25;27.88;;;;;;;;;;5082315;28;20217;-81
2021/12/25 14:45:22;;;;;;;27.40;25.70;;;;;;;;;;5099660;28;20202;-83
2021/12/25 14:47:51;;;;;;;23.88;22.48;;;;;;;;;;5101063;28;20202;-81
2021/12/25 14:50:21;;;;;;;23.10;21.80;;;;;;;;;;5099486;28;20225;-82
2021/12/25 14:53:01;;;;;;;26.23;24.48;;;;;;;;;;5099603;28;20210;-81
2021/12/25 14:55:34;;;;;;;25.95;24.05;;;;;;;;;;5091019;28;20734;-81
2021/12/25 14:58:08;;;;;;;22.00;20.80;;;;;;;;;;5101075;28;20209;-82
2021/12/25 15:00:35;;;;;;;23.75;22.25;;;;;;;;;;5101591;28;20298;-82
2021/12/25 15:03:10;;;;;;;23.75;22.25;;;;;;;;;;5080970;28;20221;-82
2021/12/25 15:05:40;;;;;;;24.20;22.38;;;;;;;;;;5100298;28;20202;-82
2021/12/25 15:08:22;;;;;;;22.55;21.35;;;;;;;;;;5103135;28;20245;-82
2021/12/25 15:10:49;;;;;;;23.73;22.50;;;;;;;;;;5110717;28;20225;-82
2021/12/25 15:13:18;;;;;;;22.70;21.45;;;;;;;;;;5106482;28;20210;-82
2021/12/25 15:15:50;;;;;;;30.15;27.90;;;;;;;;;;5099504;28;20560;-82
2021/12/25 15:18:21;;;;;;;22.35;21.20;;;;;;;;;;5101917;28;20214;-82
2021/12/25 15:20:51;;;;;;;23.25;21.75;;;;;;;;;;5102432;28;20202;-82
2021/12/25 15:23:19;;;;;;;23.02;21.50;;;;;;;;;;5101173;28;20214;-81
2021/12/25 15:25:46;;;;;;;23.95;22.55;;;;;;;;;;5097027;28;20206;-82